Página principal
METAR-TAF:

METAR-TAF

Aeroportos :

Ardabil, Irão

latitude: 38-19-35N, longitude: 048-25-28E, altura: 1315 m

Observação actual do tempo

O boletim foi feito há 2 horas e 5 minutos, às 15:00 UTC
Vento 19 kt de es-nordeste
Temperatura 20°C
Humidade 64%
Pressão 1008 hPa
Visibilidade 10 km ou mais
Poucas nuvensa uma altura de 4000 ft
Nuvens dispersasa uma altura de 17000 ft

METAR: OITL 231500Z 06019KT 9999 FEW040 SCT170 20/13 Q1008

Hora: 21:35 (17:05 UTC)


TAF: em falta

Observações e previsões do tempo de mais de 4000 aeroportos (mensagens METAR e TAF).

As estações disponíveis são os pontos amarelos e vermelhos sobre o mapa.

Mova o rato sobre o mapa para ver o nome da estação.

Depois clique no ponto para visualizar as observações e previsões meteorológicas.

Para alterar o mapa : clique nos botões verdes com uma cruz preta para aumentar o zoom; no botão verde com uma pitada de zoom; ou nas setas verdes para mapas adjacentes.


METAR-TAF: